メインページ
METAR-TAF:

METAR-TAF

空港 :

Shelbyville Municipal Airport

シェルビービル, インディアナ州, アメリカ合衆国

緯度: 39-35-08N, 経度: 085-48-00W, 海抜: 245m

現時点の気象観測

当レポートは16分前の05:53(UTC)に作成
の風 3kt
気温 21°C
湿度 83%
気圧 1016 hPa
視程: 16.1km
晴天

METAR: KGEZ 270553Z AUTO 08003KT 10SM CLR 21/18 A2999 RMK AO2 SLP149 T02110183 10278 20211 56001

時間: 02:09 (06:09 UTC)


TAF: 見つかりません

4,000以上の空港の気象観測と天気予報(METAR報とTAF報)

利用可能な観測所は地図上に黄色い丸と赤い丸で示す。

丸の上にカーソルを重ねると観測所名を参照できる。

次にクリックすると気象観測と天気予報を参照できる。

マップの切り替え:黒色「×」印の緑ボタンをクリックして拡大、「-」印の緑ボタンをクリックして縮小、緑色の三角印をクリックして隣りの地図に切り替え


METAR-TAF: